Time;durP1;ratioP1;P1;durP2;ratioP2;P2;SDS_P1;SDS_P2;PMS_P1;PMS_P2;Temp;Humidity;BMP_temperature;BMP_pressure;BME280_temperature;BME280_humidity;BME280_pressure;Samples;Min_cycle;Max_cycle;Signal;HPM_P1;HPM_P2
2023/11/14 00:00:20;;;;;;;8.95;2.35;;;;;;;10.68;76.67;97237.13;5094928;28;20040;-74
2023/11/14 00:02:46;;;;;;;12.02;2.97;;;;;;;10.76;74.96;97246.56;5078784;28;20016;-73
2023/11/14 00:05:12;;;;;;;10.07;3.30;;;;;;;10.86;74.70;97236.56;5079394;28;20413;-73
2023/11/14 00:07:37;;;;;;;12.18;2.80;;;;;;;10.87;74.54;97254.38;5045356;28;20111;-73
2023/11/14 00:10:03;;;;;;;6.70;2.90;;;;;;;10.81;74.88;97249.22;5062437;28;20114;-72
2023/11/14 00:12:29;;;;;;;7.72;2.90;;;;;;;10.82;74.40;97248.97;5079395;28;20438;-72
2023/11/14 00:14:54;;;;;;;10.55;2.60;;;;;;;10.76;74.60;97252.72;5079302;28;20032;-73
2023/11/14 00:17:20;;;;;;;12.07;2.80;;;;;;;10.84;74.18;97270.25;5078449;28;20016;-73
2023/11/14 00:19:45;;;;;;;12.10;3.17;;;;;;;10.78;74.04;97261.34;5079367;28;20032;-73
2023/11/14 00:22:11;;;;;;;12.18;3.25;;;;;;;10.76;73.93;97271.56;5079857;28;20024;-72
2023/11/14 00:24:36;;;;;;;12.30;2.80;;;;;;;10.81;74.00;97276.97;5098162;28;20423;-73
2023/11/14 00:27:02;;;;;;;12.82;3.72;;;;;;;10.64;74.57;97271.00;5061564;28;20020;-74
2023/11/14 00:29:28;;;;;;;11.68;3.03;;;;;;;10.70;74.45;97274.53;5079048;28;20036;-73
2023/11/14 00:31:53;;;;;;;15.95;3.67;;;;;;;10.65;73.81;97267.25;5079022;28;20051;-71
2023/11/14 00:34:20;;;;;;;14.32;3.45;;;;;;;10.75;73.88;97288.81;5061807;28;20411;-73
2023/11/14 00:36:47;;;;;;;13.82;3.40;;;;;;;10.73;73.32;97274.81;5078300;28;20016;-73
2023/11/14 00:39:16;;;;;;;12.15;3.28;;;;;;;10.72;73.81;97280.47;5078368;28;20032;-73
2023/11/14 00:41:43;;;;;;;14.55;3.70;;;;;;;10.62;73.94;97267.00;5078784;28;20028;-72
2023/11/14 00:44:08;;;;;;;17.25;3.55;;;;;;;10.70;73.85;97269.97;5060776;28;20085;-73
2023/11/14 00:46:34;;;;;;;11.63;3.28;;;;;;;10.69;74.16;97268.34;5095898;28;20015;-73
2023/11/14 00:49:00;;;;;;;14.20;3.40;;;;;;;10.70;74.10;97259.19;5096257;28;20048;-73
2023/11/14 00:51:26;;;;;;;14.65;3.22;;;;;;;10.75;74.28;97267.28;5061432;28;20117;-73
2023/11/14 00:53:51;;;;;;;13.85;3.33;;;;;;;10.73;74.80;97269.44;5078751;28;20096;-73
2023/11/14 00:56:17;;;;;;;12.38;3.13;;;;;;;10.67;75.00;97270.50;5077991;28;20031;-73
2023/11/14 00:58:43;;;;;;;15.98;3.75;;;;;;;10.52;75.83;97259.72;5094649;28;20063;-73
2023/11/14 01:01:08;;;;;;;19.42;4.10;;;;;;;10.51;76.12;97262.66;5060245;28;20016;-73
2023/11/14 01:03:34;;;;;;;17.70;3.85;;;;;;;10.52;76.39;97270.47;5042947;28;20040;-72
2023/11/14 01:06:00;;;;;;;12.27;3.63;;;;;;;10.47;76.58;97275.03;5059875;28;20024;-74
2023/11/14 01:08:25;;;;;;;16.20;4.05;;;;;;;10.38;77.20;97274.75;5073375;28;20053;-75
2023/11/14 01:10:51;;;;;;;19.55;3.92;;;;;;;10.21;77.84;97274.16;5073469;28;20020;-74
2023/11/14 01:13:16;;;;;;;13.77;3.53;;;;;;;10.13;78.53;97280.03;5040096;28;20115;-74
2023/11/14 01:15:42;;;;;;;15.60;3.80;;;;;;;10.03;79.06;97285.38;5040130;28;20024;-73
2023/11/14 01:18:09;;;;;;;20.10;4.07;;;;;;;9.89;79.37;97255.47;5072820;28;20072;-74
2023/11/14 01:20:35;;;;;;;13.27;3.60;;;;;;;9.89;79.44;97278.84;5107186;28;20039;-72
2023/11/14 01:23:00;;;;;;;14.52;4.00;;;;;;;9.86;79.91;97292.81;5091346;28;20481;-73
2023/11/14 01:25:26;;;;;;;17.88;3.85;;;;;;;9.86;80.38;97299.00;5056996;28;20158;-74
2023/11/14 01:27:51;;;;;;;16.90;3.80;;;;;;;9.74;80.72;97293.84;5073847;28;20043;-74
2023/11/14 01:30:17;;;;;;;15.15;4.20;;;;;;;9.73;80.71;97286.03;5075720;28;20027;-72
2023/11/14 01:32:42;;;;;;;16.60;4.28;;;;;;;9.74;81.15;97287.66;5075513;28;20039;-72
2023/11/14 01:35:09;;;;;;;16.25;3.63;;;;;;;9.81;81.59;97303.53;5092666;28;20024;-72
2023/11/14 01:37:34;;;;;;;15.88;3.80;;;;;;;9.82;81.79;97294.41;5092393;28;20625;-73
2023/11/14 01:40:00;;;;;;;16.75;4.00;;;;;;;9.67;82.12;97287.88;5057845;28;20155;-74
2023/11/14 01:42:26;;;;;;;17.55;4.05;;;;;;;9.75;82.08;97298.13;5074722;28;20128;-72
2023/11/14 01:44:51;;;;;;;14.25;3.95;;;;;;;9.81;82.35;97303.53;5040995;28;20114;-73
2023/11/14 01:47:17;;;;;;;14.52;4.22;;;;;;;9.60;82.66;97265.81;5073947;28;20039;-72
2023/11/14 01:49:43;;;;;;;15.32;3.90;;;;;;;9.71;82.84;97305.09;5074296;28;20027;-72
2023/11/14 01:52:10;;;;;;;14.80;4.20;;;;;;;9.83;82.82;97317.53;5092063;28;20028;-72
2023/11/14 01:54:36;;;;;;;11.88;3.65;;;;;;;9.88;82.73;97320.25;5057682;28;20024;-72
2023/11/14 01:57:02;;;;;;;14.00;3.42;;;;;;;9.84;83.00;97313.78;5077082;28;20035;-73
2023/11/14 01:59:27;;;;;;;13.95;4.00;;;;;;;9.93;83.00;97325.66;5046880;28;20024;-73
2023/11/14 02:01:53;;;;;;;11.45;3.40;;;;;;;9.97;82.71;97332.13;5059831;28;20089;-73
2023/11/14 02:04:20;;;;;;;13.82;3.50;;;;;;;10.04;82.74;97321.94;5059992;28;20030;-72
2023/11/14 02:06:47;;;;;;;13.30;4.10;;;;;;;10.10;82.44;97324.41;5059713;28;20097;-72
2023/11/14 02:09:13;;;;;;;20.02;4.38;;;;;;;10.13;82.47;97328.47;5059934;28;20035;-73
2023/11/14 02:11:42;;;;;;;14.75;4.20;;;;;;;10.16;82.35;97334.16;5076601;28;20032;-72
2023/11/14 02:14:08;;;;;;;15.35;4.22;;;;;;;10.15;82.56;97327.13;5059974;28;20454;-74
2023/11/14 02:16:47;;;;;;;15.93;3.47;;;;;;;10.13;82.67;97328.47;5094161;28;20036;-73
2023/11/14 02:19:14;;;;;;;9.90;3.63;;;;;;;10.20;82.52;97326.34;5065554;28;20036;-73
2023/11/14 02:21:39;;;;;;;12.65;3.65;;;;;;;10.01;82.75;97284.81;5076602;28;20387;-74
2023/11/14 02:24:08;;;;;;;12.00;3.40;;;;;;;10.15;82.75;97332.50;5059734;28;20039;-73
2023/11/14 02:26:34;;;;;;;13.60;3.30;;;;;;;10.16;81.77;97330.63;5094211;28;20081;-73
2023/11/14 02:28:59;;;;;;;14.02;3.33;;;;;;;10.26;81.64;97342.25;5059747;28;20039;-72
2023/11/14 02:31:25;;;;;;;15.48;3.60;;;;;;;10.30;80.98;97339.84;5076298;28;20023;-72
2023/11/14 02:33:51;;;;;;;12.55;3.60;;;;;;;10.36;80.56;97354.97;5076320;28;20039;-72
2023/11/14 02:36:16;;;;;;;15.98;3.17;;;;;;;10.37;80.42;97356.56;5094391;28;20073;-72
2023/11/14 02:38:42;;;;;;;13.27;3.58;;;;;;;10.40;80.44;97351.47;5059202;28;20035;-72
2023/11/14 02:41:07;;;;;;;10.60;3.33;;;;;;;10.43;80.03;97352.81;5095780;28;20032;-72
2023/11/14 02:43:33;;;;;;;14.38;3.60;;;;;;;10.44;80.14;97354.44;5059210;28;20046;-71
2023/11/14 02:45:58;;;;;;;13.82;3.50;;;;;;;10.41;80.17;97358.47;5075907;28;20038;-70
2023/11/14 02:48:23;;;;;;;12.85;3.90;;;;;;;10.45;80.15;97358.75;5093916;28;20024;-71
2023/11/14 02:50:52;;;;;;;13.50;3.05;;;;;;;10.48;80.55;97373.56;5093959;28;20385;-71
2023/11/14 02:53:21;;;;;;;12.52;3.33;;;;;;;10.46;80.05;97357.66;5075954;28;20067;-71
2023/11/14 02:55:50;;;;;;;18.65;3.50;;;;;;;10.40;80.16;97343.41;5059130;28;20483;-71
2023/11/14 02:58:16;;;;;;;15.55;3.60;;;;;;;10.43;80.31;97355.53;5058640;28;20043;-70
2023/11/14 03:00:41;;;;;;;12.88;3.22;;;;;;;10.41;80.28;97357.63;5076146;28;20020;-72
2023/11/14 03:03:10;;;;;;;14.65;3.50;;;;;;;10.48;80.00;97344.75;5059199;28;20032;-71
2023/11/14 03:05:36;;;;;;;14.40;3.40;;;;;;;10.46;80.08;97344.22;5075260;28;20020;-71
2023/11/14 03:08:02;;;;;;;13.50;3.95;;;;;;;10.28;79.96;97331.22;5093467;28;20024;-71
2023/11/14 03:10:30;;;;;;;9.95;3.20;;;;;;;10.35;79.25;97331.78;5059092;28;20019;-72
2023/11/14 03:12:56;;;;;;;14.70;3.58;;;;;;;10.37;79.15;97329.66;5075806;28;20032;-70
2023/11/14 03:15:21;;;;;;;12.48;3.40;;;;;;;10.48;79.19;97342.06;5094212;28;20122;-72
2023/11/14 03:17:47;;;;;;;12.95;3.58;;;;;;;10.45;78.87;97341.78;5042006;28;20067;-72
2023/11/14 03:20:12;;;;;;;13.90;3.80;;;;;;;10.37;79.43;97346.59;5075560;28;20127;-72
2023/11/14 03:22:37;;;;;;;12.10;3.63;;;;;;;10.34;79.94;97336.34;5075632;28;20119;-72
2023/11/14 03:25:03;;;;;;;11.15;3.55;;;;;;;10.26;79.89;97339.56;5075404;28;20031;-71
2023/11/14 03:27:29;;;;;;;17.52;3.25;;;;;;;10.27;79.80;97337.66;5074982;28;20040;-71
2023/11/14 03:29:54;;;;;;;17.25;3.83;;;;;;;10.18;79.97;97340.06;5075330;28;20109;-71
2023/11/14 03:32:20;;;;;;;11.75;2.92;;;;;;;10.20;80.21;97345.16;5075167;28;20036;-72
2023/11/14 03:34:45;;;;;;;15.13;4.38;;;;;;;10.16;80.35;97354.84;5075168;28;20051;-70
2023/11/14 03:37:10;;;;;;;13.70;3.65;;;;;;;10.24;79.76;97374.00;5092680;28;20075;-71
2023/11/14 03:39:39;;;;;;;14.75;3.50;;;;;;;10.23;79.88;97371.56;5058275;28;20119;-71
2023/11/14 03:42:05;;;;;;;13.23;3.70;;;;;;;10.17;80.30;97375.31;5092904;28;20093;-71
2023/11/14 03:44:30;;;;;;;14.02;3.60;;;;;;;10.13;80.51;97379.56;5058246;28;20024;-71
2023/11/14 03:46:55;;;;;;;12.73;3.60;;;;;;;10.09;80.59;97375.78;5074546;28;20034;-71
2023/11/14 03:49:21;;;;;;;14.32;3.75;;;;;;;9.97;80.72;97367.09;5092942;28;20034;-71
2023/11/14 03:51:46;;;;;;;14.10;3.90;;;;;;;9.94;80.57;97359.56;5041577;28;20097;-72
2023/11/14 03:54:11;;;;;;;11.85;3.03;;;;;;;9.93;80.96;97374.06;5074771;28;20101;-71
2023/11/14 03:56:37;;;;;;;14.73;4.00;;;;;;;9.82;81.00;97383.16;5060714;28;20036;-71
2023/11/14 03:59:02;;;;;;;14.68;3.42;;;;;;;9.83;81.21;97382.88;5058022;28;20047;-71
2023/11/14 04:01:28;;;;;;;17.35;4.13;;;;;;;9.86;81.09;97392.31;5058075;28;20016;-72
2023/11/14 04:03:53;;;;;;;12.85;4.03;;;;;;;9.88;80.94;97396.38;5057815;28;20442;-72
2023/11/14 04:06:18;;;;;;;17.10;4.13;;;;;;;9.93;81.22;97403.66;5074660;28;20467;-72
2023/11/14 04:08:44;;;;;;;18.10;4.28;;;;;;;9.91;81.43;97397.72;5074018;28;20024;-71
2023/11/14 04:11:12;;;;;;;18.95;4.78;;;;;;;9.95;80.98;97385.38;5074708;28;20464;-71
2023/11/14 04:13:38;;;;;;;17.83;3.38;;;;;;;10.06;80.79;97387.84;5074291;28;20066;-71
2023/11/14 04:16:04;;;;;;;12.85;3.95;;;;;;;10.07;80.55;97386.81;5074701;28;20059;-72
2023/11/14 04:18:29;;;;;;;19.13;4.50;;;;;;;10.11;80.46;97398.69;5074016;28;20024;-72
2023/11/14 04:20:55;;;;;;;16.70;3.72;;;;;;;10.11;80.20;97390.59;5042305;28;20077;-73
2023/11/14 04:23:20;;;;;;;18.85;4.22;;;;;;;10.07;80.66;97399.44;5057796;28;20032;-72
2023/11/14 04:25:46;;;;;;;17.30;4.07;;;;;;;10.06;80.28;97409.38;5074770;28;20028;-71
2023/11/14 04:28:12;;;;;;;16.42;4.45;;;;;;;10.02;79.76;97407.47;5074229;28;20062;-71
2023/11/14 04:30:37;;;;;;;14.60;4.70;;;;;;;10.00;79.94;97421.19;5058203;28;20111;-71
2023/11/14 04:33:02;;;;;;;16.67;4.75;;;;;;;10.12;79.78;97423.72;5074693;28;20039;-71
2023/11/14 04:35:29;;;;;;;13.80;3.75;;;;;;;10.11;79.65;97432.81;5074535;28;20028;-71
2023/11/14 04:37:56;;;;;;;12.70;3.60;;;;;;;10.08;79.10;97427.97;5091762;28;20081;-70
2023/11/14 04:40:22;;;;;;;19.38;3.58;;;;;;;10.22;79.08;97450.69;5092399;28;20078;-72
2023/11/14 04:42:48;;;;;;;15.35;3.72;;;;;;;10.13;79.30;97438.78;5090723;28;20026;-72
2023/11/14 04:45:13;;;;;;;14.05;3.75;;;;;;;10.12;78.73;97419.16;5057629;28;20065;-71
2023/11/14 04:47:39;;;;;;;15.35;3.65;;;;;;;10.12;78.41;97423.72;5073533;28;20107;-70
2023/11/14 04:50:05;;;;;;;13.32;3.97;;;;;;;10.20;77.79;97431.28;5056952;28;20028;-71
2023/11/14 04:52:30;;;;;;;17.83;3.53;;;;;;;10.18;77.53;97436.13;5073797;28;20031;-71
2023/11/14 04:54:56;;;;;;;13.85;4.35;;;;;;;10.16;77.31;97436.38;5092547;28;20031;-72
2023/11/14 04:57:21;;;;;;;15.60;3.50;;;;;;;10.10;77.52;97433.91;5092589;28;20051;-72
2023/11/14 04:59:47;;;;;;;14.10;3.67;;;;;;;10.06;76.95;97424.72;5073564;28;20500;-71
2023/11/14 05:02:14;;;;;;;16.20;3.60;;;;;;;10.18;76.48;97438.81;5069586;28;20028;-72
2023/11/14 05:04:39;;;;;;;15.32;3.60;;;;;;;10.16;76.69;97432.88;5091592;28;20510;-72
2023/11/14 05:07:04;;;;;;;11.75;3.78;;;;;;;10.09;76.61;97419.63;5073155;28;20024;-72
2023/11/14 05:09:33;;;;;;;101.32;66.20;;;;;;;10.17;76.02;97426.44;5073542;28;20530;-72
2023/11/14 05:11:58;;;;;;;32.25;18.77;;;;;;;10.16;76.46;97441.75;5107032;28;20028;-71
2023/11/14 05:14:23;;;;;;;16.23;4.13;;;;;;;10.10;76.21;97439.28;5073367;28;20066;-72
2023/11/14 05:16:49;;;;;;;12.05;4.38;;;;;;;10.18;75.88;97431.53;5090923;28;20024;-71
2023/11/14 05:19:14;;;;;;;16.67;7.85;;;;;;;10.12;76.19;97437.16;5091448;28;20407;-71
2023/11/14 05:21:40;;;;;;;14.45;3.15;;;;;;;10.08;75.77;97438.72;5091344;28;20020;-74
2023/11/14 05:24:09;;;;;;;19.73;4.03;;;;;;;10.02;75.44;97423.59;5073270;28;20051;-71
2023/11/14 05:26:37;;;;;;;18.10;6.10;;;;;;;9.99;75.73;97414.19;5091015;28;20028;-72
2023/11/14 05:29:02;;;;;;;16.40;3.83;;;;;;;9.92;75.78;97418.19;5090335;28;20028;-72
2023/11/14 05:31:28;;;;;;;19.17;4.18;;;;;;;10.04;75.66;97426.84;5091316;28;21349;-72
2023/11/14 05:33:53;;;;;;;16.38;4.85;;;;;;;9.94;76.15;97426.81;5077622;28;20020;-71
2023/11/14 05:36:19;;;;;;;15.20;3.83;;;;;;;10.00;75.89;97421.19;5095392;28;20571;-70
2023/11/14 05:38:45;;;;;;;14.05;4.55;;;;;;;9.89;75.45;97413.31;5095194;28;20114;-70
2023/11/14 05:41:10;;;;;;;15.02;4.68;;;;;;;10.05;75.95;97433.84;5095597;28;20032;-72
2023/11/14 05:43:36;;;;;;;21.63;5.85;;;;;;;9.95;75.95;97423.03;5095631;28;20457;-72
2023/11/14 05:46:01;;;;;;;17.63;4.63;;;;;;;9.94;75.73;97414.13;5060536;28;20437;-72
2023/11/14 05:48:28;;;;;;;17.58;5.63;;;;;;;10.01;75.76;97432.75;5076926;28;20071;-72
2023/11/14 05:50:53;;;;;;;15.10;4.38;;;;;;;9.90;75.54;97428.38;5060411;28;20034;-70
2023/11/14 05:53:19;;;;;;;17.05;4.35;;;;;;;10.01;75.92;97438.16;5095031;28;20395;-73
2023/11/14 05:55:44;;;;;;;14.57;3.72;;;;;;;10.00;75.90;97441.88;5076733;28;20028;-72
2023/11/14 05:58:10;;;;;;;15.70;4.25;;;;;;;10.01;75.93;97424.69;5059728;28;20111;-71
2023/11/14 06:00:36;;;;;;;15.48;4.28;;;;;;;9.98;75.67;97417.13;5059948;28;20510;-72
2023/11/14 06:03:01;;;;;;;15.90;4.85;;;;;;;10.00;75.87;97420.38;5094677;28;20035;-72
2023/11/14 06:05:26;;;;;;;15.80;3.75;;;;;;;10.09;76.03;97425.00;5059900;28;20032;-72
2023/11/14 06:07:52;;;;;;;14.23;3.53;;;;;;;10.02;75.71;97429.00;5076120;28;20097;-72
2023/11/14 06:10:17;;;;;;;20.42;4.55;;;;;;;10.04;75.79;97432.22;5076201;28;20039;-72
2023/11/14 06:12:43;;;;;;;16.42;3.58;;;;;;;10.09;75.81;97437.66;5076312;28;20039;-72
2023/11/14 06:15:09;;;;;;;18.00;4.13;;;;;;;10.04;75.56;97437.59;5094607;28;20384;-72
2023/11/14 06:17:35;;;;;;;14.32;4.00;;;;;;;10.07;75.71;97450.53;5075984;28;20070;-72
2023/11/14 06:20:00;;;;;;;16.38;4.18;;;;;;;10.13;75.71;97446.84;5059527;28;20053;-71
2023/11/14 06:22:25;;;;;;;18.00;4.05;;;;;;;10.13;75.67;97452.22;5076319;28;20101;-71
2023/11/14 06:24:51;;;;;;;17.27;4.35;;;;;;;10.20;75.32;97455.50;5094326;28;20031;-72
2023/11/14 06:27:16;;;;;;;13.75;3.90;;;;;;;10.11;75.34;97449.78;5075727;28;20040;-72
2023/11/14 06:29:42;;;;;;;16.08;4.20;;;;;;;10.20;75.40;97474.31;5076087;28;20030;-72
2023/11/14 06:32:07;;;;;;;24.58;11.45;;;;;;;10.20;75.97;97468.94;5076201;28;20032;-72
2023/11/14 06:34:33;;;;;;;29.77;13.52;;;;;;;10.21;75.48;97462.50;5094165;28;20028;-72
2023/11/14 06:36:58;;;;;;;34.83;16.65;;;;;;;10.19;75.36;97453.88;5093808;28;20039;-71
2023/11/14 06:39:24;;;;;;;113.10;61.55;;;;;;;10.06;76.40;97457.81;5059082;28;20118;-72
2023/11/14 06:41:50;;;;;;;59.50;30.55;;;;;;;10.13;76.32;97469.19;5058281;28;20032;-72
2023/11/14 06:44:17;;;;;;;142.35;77.55;;;;;;;10.05;76.34;97466.13;5059177;28;20020;-73
2023/11/14 06:46:42;;;;;;;221.65;123.63;;;;;;;10.00;76.65;97468.78;5093766;28;20705;-72
2023/11/14 06:49:08;;;;;;;45.55;23.60;;;;;;;10.06;76.72;97471.25;5094882;28;20084;-72
2023/11/14 06:51:33;;;;;;;29.77;10.40;;;;;;;10.01;77.20;97462.34;5094158;28;20047;-71
2023/11/14 06:53:58;;;;;;;21.95;7.05;;;;;;;10.03;77.02;97470.97;5094004;28;20076;-72
2023/11/14 06:56:24;;;;;;;16.30;5.65;;;;;;;10.05;76.90;97479.59;5077643;28;20557;-72
2023/11/14 06:58:49;;;;;;;18.38;5.30;;;;;;;10.06;76.94;97494.69;5099700;28;20035;-72
2023/11/14 07:01:15;;;;;;;18.98;6.50;;;;;;;10.05;77.30;97509.19;5094062;28;20040;-72
2023/11/14 07:03:40;;;;;;;24.15;10.45;;;;;;;10.05;77.63;97499.25;5093655;28;20027;-72
2023/11/14 07:06:05;;;;;;;22.00;8.52;;;;;;;10.06;77.41;97489.28;5059008;28;20495;-72
2023/11/14 07:08:31;;;;;;;19.60;6.07;;;;;;;10.18;77.46;97493.44;5093742;28;20020;-72
2023/11/14 07:10:57;;;;;;;19.10;5.32;;;;;;;10.13;78.02;97496.09;5093803;28;20035;-73
2023/11/14 07:13:23;;;;;;;15.20;5.30;;;;;;;10.09;77.77;97489.56;5093777;28;20490;-75
2023/11/14 07:15:48;;;;;;;16.42;5.85;;;;;;;10.20;77.96;97512.00;5058864;28;20032;-73
2023/11/14 07:18:14;;;;;;;24.58;11.85;;;;;;;10.24;78.11;97519.31;5074532;28;20104;-73
2023/11/14 07:20:39;;;;;;;22.25;6.15;;;;;;;10.25;78.09;97525.50;5086865;28;20032;-72
2023/11/14 07:23:05;;;;;;;20.35;5.85;;;;;;;10.26;78.32;97510.97;5092857;28;20024;-72
2023/11/14 07:25:34;;;;;;;21.63;5.13;;;;;;;10.18;78.42;97492.63;5079919;28;20496;-74
2023/11/14 07:27:59;;;;;;;18.50;4.85;;;;;;;10.25;77.99;97493.19;5075706;28;20036;-72
2023/11/14 07:30:26;;;;;;;16.05;4.38;;;;;;;10.29;78.49;97505.09;5093385;28;20043;-73
2023/11/14 07:32:52;;;;;;;22.80;5.63;;;;;;;10.25;78.79;97502.09;5075258;28;20024;-72
2023/11/14 07:35:21;;;;;;;17.67;4.93;;;;;;;10.23;78.29;97506.09;5093335;28;20047;-73
2023/11/14 07:37:46;;;;;;;17.83;4.18;;;;;;;10.30;78.42;97522.84;5087124;28;20433;-73
2023/11/14 07:40:12;;;;;;;13.98;4.40;;;;;;;10.25;78.51;97525.50;5054641;28;20040;-72
2023/11/14 07:42:38;;;;;;;19.27;4.85;;;;;;;10.22;78.50;97528.72;5069598;28;20024;-73
2023/11/14 07:45:06;;;;;;;18.65;4.25;;;;;;;10.25;78.60;97568.53;5074954;28;20573;-73
2023/11/14 07:47:32;;;;;;;16.50;5.38;;;;;;;10.13;79.13;97549.06;5074336;28;20016;-72
2023/11/14 07:49:57;;;;;;;19.58;4.90;;;;;;;10.13;79.19;97554.47;5074608;28;20522;-73
2023/11/14 07:52:23;;;;;;;19.35;4.95;;;;;;;10.09;79.14;97539.88;5074277;28;20039;-73
2023/11/14 07:54:49;;;;;;;15.57;5.20;;;;;;;10.12;79.35;97531.31;5074564;28;20403;-72
2023/11/14 07:57:15;;;;;;;16.10;5.15;;;;;;;10.02;79.55;97537.41;5074191;28;20518;-73
2023/11/14 07:59:41;;;;;;;17.98;5.30;;;;;;;10.00;79.95;97534.16;5058027;28;20042;-73
2023/11/14 08:02:06;;;;;;;17.13;4.68;;;;;;;10.13;80.06;97538.31;5057892;28;20024;-73
2023/11/14 08:04:32;;;;;;;17.75;5.18;;;;;;;10.12;80.05;97520.56;5058013;28;20400;-73
2023/11/14 08:06:57;;;;;;;17.17;5.82;;;;;;;10.15;80.01;97530.81;5074109;28;20024;-74
2023/11/14 08:09:23;;;;;;;21.38;5.30;;;;;;;10.25;80.15;97552.41;5074533;28;20415;-73
2023/11/14 08:11:48;;;;;;;14.35;5.15;;;;;;;10.29;79.99;97535.47;5057817;28;20027;-74
2023/11/14 08:14:14;;;;;;;18.48;6.13;;;;;;;10.30;79.98;97528.22;5092662;28;20095;-73
2023/11/14 08:16:40;;;;;;;15.05;5.78;;;;;;;10.41;80.23;97529.91;5074205;28;20030;-74
2023/11/14 08:19:05;;;;;;;19.20;4.85;;;;;;;10.51;80.32;97553.38;5092704;28;20040;-73
2023/11/14 08:21:31;;;;;;;20.05;5.10;;;;;;;10.53;80.14;97551.25;5074212;28;20027;-72
2023/11/14 08:23:56;;;;;;;19.92;5.35;;;;;;;10.57;79.76;97550.47;5074447;28;20105;-73
2023/11/14 08:26:22;;;;;;;18.98;5.45;;;;;;;10.59;80.34;97561.81;5057900;28;20032;-74
2023/11/14 08:28:48;;;;;;;20.65;4.93;;;;;;;10.57;80.28;97555.06;5094861;28;20472;-73
2023/11/14 08:31:15;;;;;;;13.75;4.65;;;;;;;10.61;80.30;97556.16;5057937;28;20024;-74
2023/11/14 08:33:42;;;;;;;22.50;5.82;;;;;;;10.73;79.91;97554.91;5057505;28;20438;-73
2023/11/14 08:36:07;;;;;;;19.27;5.47;;;;;;;10.65;80.25;97555.38;5080871;28;20480;-74
2023/11/14 08:38:34;;;;;;;18.60;4.78;;;;;;;10.78;80.40;97549.50;5091715;28;20039;-73
2023/11/14 08:41:01;;;;;;;19.20;5.07;;;;;;;10.84;80.54;97553.88;5074395;28;20121;-72
2023/11/14 08:43:27;;;;;;;17.55;5.25;;;;;;;10.86;80.67;97559.81;5074442;28;20492;-73
2023/11/14 08:45:52;;;;;;;15.73;4.80;;;;;;;10.93;80.37;97565.78;5057246;28;20026;-74
2023/11/14 08:48:18;;;;;;;21.15;6.05;;;;;;;10.93;80.40;97544.22;5073577;28;20032;-74
2023/11/14 08:50:43;;;;;;;11.73;4.60;;;;;;;10.91;80.22;97524.81;5057088;28;20361;-74
2023/11/14 08:53:09;;;;;;;15.50;4.70;;;;;;;10.96;80.85;97545.56;5073768;28;20450;-74
2023/11/14 08:55:35;;;;;;;17.33;5.03;;;;;;;11.02;80.98;97552.59;5057042;28;20603;-75
2023/11/14 08:58:01;;;;;;;21.05;4.60;;;;;;;11.16;80.42;97555.63;5073416;28;20475;-74
2023/11/14 09:00:27;;;;;;;13.52;4.55;;;;;;;11.28;80.64;97557.03;5091565;28;20039;-75
2023/11/14 09:02:52;;;;;;;18.70;4.88;;;;;;;11.30;80.03;97532.50;5073627;28;20065;-74
2023/11/14 09:05:17;;;;;;;18.88;4.63;;;;;;;11.35;80.25;97536.03;5073203;28;20042;-73
2023/11/14 09:07:43;;;;;;;13.93;4.80;;;;;;;11.39;80.51;97542.50;5073194;28;20495;-74
2023/11/14 09:10:09;;;;;;;13.85;4.72;;;;;;;11.33;80.70;97529.28;5091734;28;20039;-75
2023/11/14 09:12:34;;;;;;;15.90;4.57;;;;;;;11.33;80.25;97537.34;5040108;28;20028;-74
2023/11/14 09:15:00;;;;;;;11.82;4.05;;;;;;;11.41;80.35;97537.63;5073639;28;20050;-74
2023/11/14 09:17:26;;;;;;;17.90;5.10;;;;;;;11.34;80.46;97517.44;5073056;28;20402;-73
2023/11/14 09:19:52;;;;;;;16.10;4.75;;;;;;;11.35;80.38;97509.06;5090209;28;20050;-74
2023/11/14 09:22:18;;;;;;;17.58;4.65;;;;;;;11.42;80.54;97508.81;5107059;28;20046;-73
2023/11/14 09:24:44;;;;;;;11.68;4.55;;;;;;;11.45;80.52;97502.88;5073589;28;20434;-70
2023/11/14 09:27:11;;;;;;;13.70;4.13;;;;;;;11.43;80.37;97532.00;5073172;28;20032;-73
2023/11/14 09:29:37;;;;;;;16.98;4.38;;;;;;;11.32;80.48;97535.75;5073380;28;20495;-74
2023/11/14 09:32:03;;;;;;;17.65;4.63;;;;;;;11.34;80.50;97555.16;5091288;28;20043;-74
2023/11/14 09:34:30;;;;;;;15.15;3.83;;;;;;;11.32;80.93;97568.09;5053316;28;20020;-75
2023/11/14 09:36:56;;;;;;;12.80;4.40;;;;;;;11.37;80.97;97568.09;5069440;28;20033;-74
2023/11/14 09:39:22;;;;;;;13.85;3.88;;;;;;;11.33;80.93;97558.91;5073323;28;20368;-75
2023/11/14 09:41:47;;;;;;;18.73;4.70;;;;;;;11.48;80.91;97556.28;5091273;28;20047;-74
2023/11/14 09:44:13;;;;;;;17.15;4.95;;;;;;;11.49;80.86;97547.09;5056547;28;20024;-73
2023/11/14 09:46:39;;;;;;;16.55;4.30;;;;;;;11.42;80.56;97524.97;5072927;28;20111;-72
2023/11/14 09:49:04;;;;;;;16.90;3.60;;;;;;;11.50;80.38;97532.56;5091154;28;20039;-72
2023/11/14 09:51:31;;;;;;;14.77;4.22;;;;;;;11.63;80.05;97538.25;5073131;28;20058;-74
2023/11/14 09:53:56;;;;;;;14.10;4.38;;;;;;;11.63;79.77;97537.44;5091159;28;20496;-72
2023/11/14 09:56:22;;;;;;;15.80;4.30;;;;;;;11.74;80.08;97525.59;5073124;28;20028;-73
2023/11/14 09:58:49;;;;;;;13.98;3.97;;;;;;;11.77;79.85;97522.38;5072593;28;20020;-73
2023/11/14 10:01:14;;;;;;;14.57;3.88;;;;;;;11.89;79.29;97506.75;5056460;28;20115;-74
2023/11/14 10:03:41;;;;;;;18.98;4.25;;;;;;;11.76;79.17;97499.19;5090933;28;20055;-73
2023/11/14 10:06:08;;;;;;;14.75;4.07;;;;;;;11.74;79.77;97504.03;5073081;28;20058;-73
2023/11/14 10:08:36;;;;;;;13.90;3.45;;;;;;;11.77;79.36;97516.97;5056106;28;20028;-73
2023/11/14 10:11:03;;;;;;;8.98;3.50;;;;;;;11.79;79.51;97541.81;5074334;28;20036;-74
2023/11/14 10:13:29;;;;;;;16.90;4.22;;;;;;;11.87;79.48;97537.78;5072910;28;20073;-73
2023/11/14 10:15:54;;;;;;;14.07;3.63;;;;;;;11.79;79.14;97525.63;5056572;28;20032;-74
2023/11/14 10:18:29;;;;;;;11.68;3.83;;;;;;;11.84;78.84;97501.34;5076255;28;20069;-74
2023/11/14 10:20:54;;;;;;;16.00;4.00;;;;;;;11.88;79.49;97518.59;5076660;28;20044;-74
2023/11/14 10:23:30;;;;;;;13.52;3.80;;;;;;;12.00;78.68;97554.22;5094805;28;20035;-74
2023/11/14 10:26:03;;;;;;;14.13;3.70;;;;;;;11.93;78.70;97545.59;5076718;28;20036;-73
2023/11/14 10:28:28;;;;;;;12.65;3.58;;;;;;;12.02;79.15;97554.78;5094245;28;20082;-73
2023/11/14 10:30:56;;;;;;;16.25;4.22;;;;;;;12.15;78.27;97535.38;5076360;28;20399;-74
2023/11/14 10:33:21;;;;;;;19.05;4.85;;;;;;;12.12;78.59;97526.97;5060272;28;20169;-73
2023/11/14 10:35:47;;;;;;;16.75;4.20;;;;;;;12.03;78.56;97521.31;5059990;28;20110;-74
2023/11/14 10:38:20;;;;;;;16.73;3.90;;;;;;;12.07;78.68;97517.00;5076380;28;20071;-74
2023/11/14 10:40:54;;;;;;;12.90;3.88;;;;;;;11.99;78.07;97498.66;5076119;28;20036;-72
2023/11/14 10:43:27;;;;;;;13.23;3.78;;;;;;;12.04;78.29;97517.53;5059441;28;20115;-72
2023/11/14 10:45:53;;;;;;;23.73;7.00;;;;;;;11.91;78.52;97512.69;5076110;28;20092;-74
2023/11/14 10:48:20;;;;;;;14.52;4.68;;;;;;;11.93;78.70;97509.69;5075898;28;20047;-75
2023/11/14 10:50:47;;;;;;;15.25;3.60;;;;;;;11.89;78.38;97504.03;5076067;28;20427;-73
2023/11/14 10:53:13;;;;;;;13.63;3.70;;;;;;;11.82;78.47;97495.41;5059249;28;20035;-75
2023/11/14 10:55:39;;;;;;;13.48;3.55;;;;;;;11.82;78.11;97527.78;5058997;28;20119;-74
2023/11/14 10:58:06;;;;;;;12.52;5.05;;;;;;;11.89;78.10;97533.72;5058821;28;20060;-75
2023/11/14 11:00:34;;;;;;;15.85;4.15;;;;;;;11.81;78.68;97526.16;5075950;28;20042;-74
2023/11/14 11:03:00;;;;;;;11.93;3.85;;;;;;;11.86;78.78;97534.25;5059252;28;20484;-75
2023/11/14 11:05:31;;;;;;;12.20;3.42;;;;;;;11.86;78.22;97536.94;5075833;28;20123;-75
2023/11/14 11:07:58;;;;;;;10.52;3.28;;;;;;;11.73;77.93;97529.41;5076127;28;20110;-74
2023/11/14 11:10:24;;;;;;;15.45;3.13;;;;;;;11.79;78.31;97520.22;5075913;28;20103;-73
2023/11/14 11:12:51;;;;;;;11.35;3.33;;;;;;;11.74;78.01;97493.22;5059034;28;20127;-74
2023/11/14 11:15:16;;;;;;;14.27;3.95;;;;;;;11.84;77.55;97509.44;5059237;28;20754;-74
2023/11/14 11:17:44;;;;;;;13.10;4.00;;;;;;;11.90;77.54;97515.66;5075297;28;20032;-74
2023/11/14 11:20:23;;;;;;;11.55;2.90;;;;;;;11.92;77.51;97525.09;5075527;28;20020;-75